Terminal Aerodrome Forecast
Issued by NWS Sterling, VA

Home | Current Version | Previous Version | Text Only | Print | Product List | Glossary On
Versions: 1 2 3 4 5 6 7 8 9 10 11 12 13 14 15 16
000
FTUS41 KLWX 202300
TAFCHO
TAF
KCHO 202339Z 2100/2124 36003KT 4SM BR VCTS BKN030CB
     FM210030 VRB03KT 6SM BR SCT050
     FM210400 00000KT 3SM BR SCT070
     FM210900 00000KT 1/2SM FG FEW008 SCT050
     FM211300 22005KT P6SM FEW008 SCT050
     FM211900 26008KT P6SM TSRA BKN050CB=

USA.gov is the U.S. government's official web portal to all federal, state and local government web resources and services.